createdAt,value
2023-03-04T00:00:56.371Z,5.43
2023-03-04T00:03:26.490Z,5.60
2023-03-04T00:05:56.247Z,5.00
2023-03-04T00:08:26.006Z,6.10
2023-03-04T00:10:55.772Z,6.70
2023-03-04T00:13:25.758Z,6.70
2023-03-04T00:15:58.226Z,6.93
2023-03-04T00:18:28.001Z,5.73
2023-03-04T00:20:57.612Z,5.67
2023-03-04T00:23:27.381Z,5.63
2023-03-04T00:25:57.206Z,6.97
2023-03-04T00:28:27.029Z,6.97
2023-03-04T00:30:59.637Z,6.60
2023-03-04T00:33:29.413Z,6.00
2023-03-04T00:35:59.043Z,5.70
2023-03-04T00:38:28.885Z,5.57
2023-03-04T00:40:58.547Z,5.83
2023-03-04T00:43:28.338Z,6.40
2023-03-04T00:46:00.859Z,5.77
2023-03-04T00:48:30.551Z,5.57
2023-03-04T00:51:00.177Z,6.20
2023-03-04T00:53:29.864Z,5.33
2023-03-04T00:55:59.522Z,4.90
2023-03-04T00:58:29.130Z,6.03
2023-03-04T01:01:01.489Z,5.73
2023-03-04T01:03:32.773Z,5.77
2023-03-04T01:06:02.447Z,5.60
2023-03-04T01:08:32.081Z,5.30
2023-03-04T01:11:01.876Z,5.50
2023-03-04T01:13:31.573Z,4.93
2023-03-04T01:16:05.136Z,5.13
2023-03-04T01:18:35.081Z,5.00
2023-03-04T01:21:05.496Z,4.73
2023-03-04T01:23:35.135Z,5.23
2023-03-04T01:26:04.751Z,4.57
2023-03-04T01:28:35.985Z,5.47
2023-03-04T01:31:08.489Z,4.43
2023-03-04T01:33:38.224Z,4.47
2023-03-04T01:36:08.386Z,4.40
2023-03-04T01:38:38.061Z,4.50
2023-03-04T01:41:08.515Z,4.20
2023-03-04T01:43:40.150Z,3.57
2023-03-04T01:46:12.951Z,4.20
2023-03-04T01:48:42.760Z,4.40
2023-03-04T01:51:16.917Z,4.47
2023-03-04T01:53:47.474Z,4.53
2023-03-04T01:56:21.970Z,3.97
2023-03-04T01:59:14.321Z,5.60
2023-03-04T02:01:49.068Z,4.40
2023-03-04T02:04:20.612Z,4.80
2023-03-04T02:06:51.882Z,3.77
2023-03-04T02:09:22.882Z,3.93
2023-03-04T02:11:53.830Z,3.27
2023-03-04T02:14:24.641Z,3.80
2023-03-04T02:16:57.046Z,4.20
2023-03-04T02:19:47.585Z,2.80
2023-03-04T02:22:17.321Z,3.57
2023-03-04T02:24:51.732Z,3.17
2023-03-04T02:27:24.283Z,3.23
2023-03-04T02:29:55.141Z,4.00
2023-03-04T02:32:24.929Z,3.17
2023-03-04T02:34:54.750Z,3.23
2023-03-04T02:37:24.728Z,4.60
2023-03-04T02:39:57.030Z,3.50
2023-03-04T02:42:29.267Z,3.30
2023-03-04T02:45:03.987Z,4.10
2023-03-04T02:47:33.751Z,3.37
2023-03-04T02:50:03.725Z,4.43
2023-03-04T02:52:34.031Z,2.90
2023-03-04T02:55:03.822Z,4.33
2023-03-04T02:57:36.027Z,3.50
2023-03-04T03:00:06.239Z,2.77
2023-03-04T03:02:35.941Z,3.83
2023-03-04T03:05:05.785Z,4.40
2023-03-04T03:07:35.847Z,3.27
2023-03-04T03:10:05.607Z,3.37
2023-03-04T03:12:37.972Z,3.63
2023-03-04T03:15:09.042Z,2.90
2023-03-04T03:17:38.969Z,4.03
2023-03-04T03:20:10.394Z,3.10
2023-03-04T03:22:40.224Z,3.20
2023-03-04T03:25:11.800Z,3.47
2023-03-04T03:27:44.459Z,3.47
2023-03-04T03:30:18.005Z,3.33
2023-03-04T03:32:47.623Z,3.60
2023-03-04T03:35:17.626Z,3.60
2023-03-04T03:37:49.038Z,3.60
2023-03-04T03:40:18.802Z,2.83
2023-03-04T03:42:51.147Z,2.60
2023-03-04T03:45:20.900Z,3.00
2023-03-04T03:47:50.552Z,3.30
2023-03-04T03:50:20.462Z,2.77
2023-03-04T03:52:50.122Z,2.97
2023-03-04T03:55:19.812Z,2.97
2023-03-04T03:57:52.014Z,3.00
2023-03-04T04:00:22.559Z,2.50
2023-03-04T04:02:52.614Z,3.00
2023-03-04T04:05:22.448Z,2.10
2023-03-04T04:07:54.074Z,2.53
2023-03-04T04:10:24.136Z,2.77
2023-03-04T04:12:56.342Z,3.50
2023-03-04T04:15:25.952Z,2.70
2023-03-04T04:17:55.582Z,2.60
2023-03-04T04:20:26.305Z,2.73
2023-03-04T04:22:56.005Z,2.67
2023-03-04T04:25:25.959Z,2.40
2023-03-04T04:27:58.318Z,3.60
2023-03-04T04:30:28.348Z,3.37
2023-03-04T04:33:01.647Z,3.13
2023-03-04T04:35:31.498Z,3.50
2023-03-04T04:38:01.141Z,2.97
2023-03-04T04:40:30.733Z,2.20
2023-03-04T04:43:02.961Z,2.20
2023-03-04T04:45:32.605Z,2.10
2023-03-04T04:48:02.233Z,2.53
2023-03-04T04:50:33.019Z,3.70
2023-03-04T04:53:02.858Z,2.40
2023-03-04T04:55:32.737Z,1.80
2023-03-04T04:58:04.927Z,2.40
2023-03-04T05:00:34.539Z,2.80
2023-03-04T05:03:04.234Z,3.00
2023-03-04T05:05:33.980Z,2.47
2023-03-04T05:08:03.719Z,2.40
2023-03-04T05:10:33.348Z,2.63
2023-03-04T05:13:05.560Z,2.53
2023-03-04T05:15:35.251Z,2.73
2023-03-04T05:18:07.675Z,2.50
2023-03-04T05:20:37.351Z,1.90
2023-03-04T05:23:07.100Z,2.63
2023-03-04T05:25:36.853Z,2.57
2023-03-04T05:28:12.498Z,1.93
2023-03-04T05:30:42.529Z,3.30
2023-03-04T05:33:13.865Z,2.10
2023-03-04T05:35:44.714Z,2.47
2023-03-04T05:38:15.757Z,2.70
2023-03-04T05:40:46.232Z,2.27
2023-03-04T05:43:19.236Z,2.00
2023-03-04T05:45:48.921Z,3.07
2023-03-04T05:48:18.747Z,2.23
2023-03-04T05:50:48.609Z,2.93
2023-03-04T05:53:18.210Z,2.47
2023-03-04T05:55:49.888Z,2.67
2023-03-04T05:58:23.210Z,2.43
2023-03-04T06:00:53.056Z,2.30
2023-03-04T06:03:25.270Z,2.50
2023-03-04T06:05:56.020Z,2.73
2023-03-04T06:08:25.780Z,2.43
2023-03-04T06:10:56.919Z,2.13
2023-03-04T06:13:29.471Z,3.10
2023-03-04T06:16:01.098Z,1.77
2023-03-04T06:18:31.924Z,2.97
2023-03-04T06:21:02.290Z,2.57
2023-03-04T06:23:32.794Z,2.60
2023-03-04T06:26:03.552Z,2.27
2023-03-04T06:28:35.831Z,2.10
2023-03-04T06:31:05.608Z,1.77
2023-03-04T06:33:35.452Z,2.87
2023-03-04T06:36:05.176Z,2.90
2023-03-04T06:38:34.788Z,3.50
2023-03-04T06:41:09.738Z,2.13
2023-03-04T06:43:42.453Z,2.57
2023-03-04T06:46:12.523Z,2.63
2023-03-04T06:48:42.395Z,2.87
2023-03-04T06:51:13.613Z,3.90
2023-03-04T06:53:44.113Z,2.63
2023-03-04T06:56:16.177Z,3.00
2023-03-04T06:58:49.109Z,3.03
2023-03-04T07:01:20.960Z,3.30
2023-03-04T07:03:51.587Z,3.00
2023-03-04T07:06:23.880Z,2.73
2023-03-04T07:08:54.025Z,3.30
2023-03-04T07:11:24.954Z,2.97
2023-03-04T07:13:57.393Z,2.83
2023-03-04T07:16:27.415Z,3.20
2023-03-04T07:18:57.099Z,3.47
2023-03-04T07:21:27.173Z,3.40
2023-03-04T07:23:56.866Z,4.10
2023-03-04T07:26:26.856Z,2.63
2023-03-04T07:28:59.985Z,3.43
2023-03-04T07:31:32.179Z,2.80
2023-03-04T07:34:03.725Z,3.53
2023-03-04T07:36:34.365Z,3.03
2023-03-04T07:39:04.002Z,3.50
2023-03-04T07:41:36.406Z,3.30
2023-03-04T07:44:12.764Z,2.93
2023-03-04T07:46:42.821Z,3.30
2023-03-04T07:49:14.717Z,3.77
2023-03-04T07:51:44.371Z,3.13
2023-03-04T07:54:14.017Z,2.67
2023-03-04T07:56:43.699Z,2.73
2023-03-04T07:59:15.877Z,2.97
2023-03-04T08:01:45.793Z,3.67
2023-03-04T08:04:15.527Z,3.60
2023-03-04T08:06:45.231Z,2.80
2023-03-04T08:09:15.170Z,2.93
2023-03-04T08:11:45.986Z,3.27
2023-03-04T08:14:18.267Z,3.70
2023-03-04T08:16:47.889Z,3.20
2023-03-04T08:19:17.587Z,4.43
2023-03-04T08:21:47.920Z,3.90
2023-03-04T08:24:17.795Z,4.63
2023-03-04T08:26:50.451Z,3.60
2023-03-04T08:29:24.892Z,3.40
2023-03-04T08:31:56.256Z,3.37
2023-03-04T08:34:28.747Z,3.43
2023-03-04T08:36:58.524Z,5.80
2023-03-04T08:39:28.134Z,6.67
2023-03-04T08:41:57.760Z,4.00
2023-03-04T08:44:30.139Z,3.60
2023-03-04T08:46:59.826Z,4.37
2023-03-04T08:49:29.418Z,4.43
2023-03-04T08:51:59.031Z,5.30
2023-03-04T08:54:28.640Z,3.27
2023-03-04T08:56:58.697Z,5.00
2023-03-04T08:59:30.935Z,3.60
2023-03-04T09:02:00.678Z,3.20
2023-03-04T09:04:30.324Z,2.80
2023-03-04T09:07:00.003Z,2.40
2023-03-04T09:09:29.873Z,3.17
2023-03-04T09:11:59.509Z,2.77
2023-03-04T09:14:32.729Z,3.40
2023-03-04T09:17:02.534Z,2.50
2023-03-04T09:19:32.402Z,3.33
2023-03-04T09:22:02.220Z,2.20
2023-03-04T09:24:32.125Z,2.97
2023-03-04T09:27:01.753Z,2.27
2023-03-04T09:29:33.985Z,2.30
2023-03-04T09:32:03.688Z,2.57
2023-03-04T09:34:33.353Z,2.57
2023-03-04T09:37:02.987Z,2.33
2023-03-04T09:39:32.628Z,2.30
2023-03-04T09:42:04.306Z,2.37
2023-03-04T09:44:40.502Z,2.57
2023-03-04T09:47:16.577Z,2.50
2023-03-04T09:49:51.621Z,2.67
2023-03-04T09:52:33.760Z,2.90
2023-03-04T09:55:08.889Z,2.07
2023-03-04T09:57:53.425Z,2.43
2023-03-04T10:00:28.317Z,3.10
2023-03-04T10:03:15.244Z,2.43
2023-03-04T10:05:51.533Z,2.97
2023-03-04T10:08:36.305Z,3.53
2023-03-04T10:11:12.297Z,4.40
2023-03-04T10:13:51.222Z,4.33
2023-03-04T10:16:29.344Z,3.10
2023-03-04T10:19:02.251Z,4.37
2023-03-04T10:21:36.053Z,4.50
2023-03-04T10:24:15.297Z,5.07
2023-03-04T10:26:49.187Z,4.17
2023-03-04T10:29:20.846Z,3.30
2023-03-04T10:31:56.121Z,3.80
2023-03-04T10:34:26.535Z,2.80
2023-03-04T10:37:02.577Z,3.60
2023-03-04T10:39:34.698Z,3.00
2023-03-04T10:42:07.015Z,3.00
2023-03-04T10:44:39.966Z,3.20
2023-03-04T10:47:14.362Z,3.60
2023-03-04T10:49:54.694Z,2.70
2023-03-04T10:52:31.770Z,2.50
2023-03-04T10:55:03.492Z,2.60
2023-03-04T10:57:38.729Z,3.23
2023-03-04T11:00:28.876Z,2.87
2023-03-04T11:03:27.903Z,2.63
2023-03-04T11:06:13.481Z,2.87
2023-03-04T11:08:44.406Z,3.30
2023-03-04T11:11:42.559Z,2.70
2023-03-04T11:14:26.125Z,2.90
2023-03-04T11:16:58.279Z,3.67
2023-03-04T11:19:34.197Z,3.70
2023-03-04T11:22:04.397Z,2.90
2023-03-04T11:24:38.313Z,2.67
2023-03-04T11:27:16.229Z,2.73
2023-03-04T11:29:54.951Z,3.03
2023-03-04T11:32:30.207Z,3.73
2023-03-04T11:35:13.383Z,3.70
2023-03-04T11:37:47.995Z,3.60
2023-03-04T11:40:26.192Z,3.27
2023-03-04T11:43:00.875Z,2.40
2023-03-04T11:45:38.462Z,1.70
2023-03-04T11:48:16.333Z,4.10
2023-03-04T11:50:52.444Z,5.93
2023-03-04T11:53:32.070Z,6.90
2023-03-04T11:56:25.218Z,5.45
2023-03-04T11:59:39.411Z,3.97
2023-03-04T12:02:17.228Z,2.50
2023-03-04T12:05:06.245Z,2.00
2023-03-04T12:07:49.566Z,2.20
2023-03-04T12:10:28.001Z,2.17
2023-03-04T12:13:28.369Z,2.57
2023-03-04T12:16:08.927Z,3.00
2023-03-04T12:18:54.896Z,2.90
2023-03-04T12:21:42.574Z,3.30
2023-03-04T12:24:37.347Z,3.07
2023-03-04T12:27:18.170Z,2.87
2023-03-04T12:29:54.981Z,2.77
2023-03-04T12:32:30.647Z,2.67
2023-03-04T12:35:22.302Z,3.33
2023-03-04T12:38:19.374Z,2.70
2023-03-04T12:41:03.361Z,3.37
2023-03-04T12:43:53.172Z,3.57
2023-03-04T12:46:34.741Z,3.20
2023-03-04T12:49:28.789Z,3.47
2023-03-04T12:52:09.373Z,3.13
2023-03-04T12:54:43.312Z,2.73
2023-03-04T12:57:17.625Z,2.90
2023-03-04T12:59:53.977Z,3.20
2023-03-04T13:02:37.074Z,3.80
2023-03-04T13:05:26.030Z,3.27
2023-03-04T13:08:05.201Z,2.80
2023-03-04T13:10:35.318Z,3.03
2023-03-04T13:13:07.787Z,2.73
2023-03-04T13:15:39.598Z,3.03
2023-03-04T13:18:34.417Z,2.90
2023-03-04T13:21:26.386Z,3.57
2023-03-04T13:23:56.746Z,3.00
2023-03-04T13:26:31.780Z,3.07
2023-03-04T13:35:47.984Z,2.90
2023-03-04T16:03:08.793Z,3.20
2023-03-04T16:05:40.708Z,3.40
2023-03-04T16:08:15.660Z,4.43
2023-03-04T16:10:46.560Z,4.30
2023-03-04T16:13:19.521Z,3.77
2023-03-04T16:15:49.999Z,4.33
2023-03-04T16:18:23.766Z,3.87
2023-03-04T16:20:54.095Z,4.60
2023-03-04T16:23:26.541Z,4.00
2023-03-04T16:25:58.365Z,3.53
2023-03-04T16:28:28.041Z,3.33
2023-03-04T16:30:57.684Z,4.00
2023-03-04T16:33:29.873Z,3.00
2023-03-04T16:36:00.033Z,3.70
2023-03-04T16:38:34.141Z,3.50
2023-03-04T16:41:05.127Z,4.20
2023-03-04T16:43:35.139Z,4.00
2023-03-04T16:46:04.866Z,2.70
2023-03-04T16:48:37.249Z,3.20
2023-03-04T16:51:20.597Z,2.93
2023-03-04T16:53:52.134Z,4.30
2023-03-04T16:56:22.857Z,4.60
2023-03-04T16:58:54.858Z,4.07
2023-03-04T17:01:26.862Z,6.80
2023-03-04T17:04:00.375Z,4.70
2023-03-04T17:06:30.636Z,4.93
2023-03-04T17:09:00.339Z,3.70
2023-03-04T17:11:29.957Z,3.87
2023-03-04T17:13:59.619Z,5.27
2023-03-04T17:16:29.723Z,3.63
2023-03-04T17:19:02.565Z,4.20
2023-03-04T17:21:32.185Z,3.73
2023-03-04T17:24:03.224Z,3.77
2023-03-04T17:26:33.841Z,4.90
2023-03-04T17:29:03.531Z,4.07
2023-03-04T17:31:33.296Z,3.67
2023-03-04T17:34:06.091Z,4.53
2023-03-04T17:36:36.323Z,4.37
2023-03-04T17:39:06.951Z,4.23
2023-03-04T17:41:36.737Z,4.87
2023-03-04T17:44:06.776Z,4.90
2023-03-04T17:46:36.584Z,3.80
2023-03-04T17:49:08.909Z,3.67
2023-03-04T17:51:41.118Z,4.40
2023-03-04T17:54:12.019Z,4.13
2023-03-04T17:56:43.497Z,3.80
2023-03-04T17:59:16.377Z,4.53
2023-03-04T18:01:47.291Z,3.07
2023-03-04T18:04:20.157Z,3.60
2023-03-04T18:06:50.017Z,3.40
2023-03-04T18:09:20.993Z,3.80
2023-03-04T18:11:50.921Z,2.83
2023-03-04T18:14:20.567Z,3.10
2023-03-04T18:16:50.240Z,3.63
2023-03-04T18:19:22.472Z,5.37
2023-03-04T18:21:52.210Z,3.40
2023-03-04T18:24:21.879Z,2.90
2023-03-04T18:26:51.541Z,3.40
2023-03-04T18:29:21.221Z,3.40
2023-03-04T18:31:50.953Z,3.60
2023-03-04T18:34:23.323Z,3.03
2023-03-04T18:36:53.016Z,3.30
2023-03-04T18:39:22.744Z,3.60
2023-03-04T18:41:52.373Z,3.50
2023-03-04T18:44:22.010Z,3.90
2023-03-04T18:46:55.574Z,3.40
2023-03-04T18:49:28.061Z,3.83
2023-03-04T18:51:57.688Z,3.67
2023-03-04T18:54:27.392Z,4.43
2023-03-04T18:56:59.967Z,3.20
2023-03-04T18:59:33.421Z,3.70
2023-03-04T19:02:07.583Z,3.80
2023-03-04T19:04:40.693Z,3.13
2023-03-04T19:07:11.340Z,3.03
2023-03-04T19:09:41.962Z,3.20
2023-03-04T19:12:12.760Z,3.30
2023-03-04T19:14:43.720Z,3.27
2023-03-04T19:17:14.381Z,3.30
2023-03-04T19:19:46.735Z,2.87
2023-03-04T19:22:16.526Z,5.27
2023-03-04T19:24:46.146Z,6.63
2023-03-04T19:27:15.940Z,4.80
2023-03-04T19:29:45.614Z,4.83
2023-03-04T19:32:17.350Z,11.93
2023-03-04T19:34:50.356Z,7.63
2023-03-04T19:37:20.040Z,13.10
2023-03-04T19:39:50.373Z,6.37
2023-03-04T19:42:20.000Z,8.90
2023-03-04T19:44:49.674Z,7.00
2023-03-04T19:47:19.318Z,9.63
2023-03-04T19:49:51.530Z,8.07
2023-03-04T19:52:21.335Z,5.10
2023-03-04T19:54:51.020Z,3.70
2023-03-04T19:57:20.709Z,3.20
2023-03-04T19:59:50.681Z,3.13
2023-03-04T20:02:20.340Z,2.90
2023-03-04T20:04:52.531Z,2.70
2023-03-04T20:07:22.135Z,2.47
2023-03-04T20:09:51.726Z,3.13
2023-03-04T20:12:21.407Z,3.00
2023-03-04T20:14:51.224Z,3.80
2023-03-04T20:17:20.943Z,2.80
2023-03-04T20:19:53.410Z,3.17
2023-03-04T20:22:23.085Z,3.50
2023-03-04T20:24:54.886Z,3.30
2023-03-04T20:27:24.709Z,2.50
2023-03-04T20:29:55.157Z,3.70
2023-03-04T20:32:24.953Z,3.30
2023-03-04T20:34:58.342Z,3.20
2023-03-04T20:37:27.985Z,3.20
2023-03-04T20:39:58.183Z,3.43
2023-03-04T20:42:27.965Z,3.73
2023-03-04T20:44:57.611Z,2.97
2023-03-04T20:47:27.224Z,3.40
2023-03-04T20:49:59.517Z,3.83
2023-03-04T20:52:29.152Z,3.30
2023-03-04T20:54:58.817Z,3.90
2023-03-04T20:57:29.360Z,3.47
2023-03-04T20:59:59.051Z,3.33
2023-03-04T21:02:28.698Z,3.37
2023-03-04T21:05:01.422Z,3.33
2023-03-04T21:07:31.166Z,3.90
2023-03-04T21:10:00.849Z,2.93
2023-03-04T21:12:30.473Z,3.03
2023-03-04T21:15:00.125Z,3.10
2023-03-04T21:17:29.757Z,4.50
2023-03-04T21:20:02.040Z,3.70
2023-03-04T21:22:31.904Z,2.87
2023-03-04T21:25:01.506Z,3.43
2023-03-04T21:27:31.380Z,4.53
2023-03-04T21:30:01.021Z,3.47
2023-03-04T21:32:30.730Z,3.37
2023-03-04T21:35:03.115Z,2.43
2023-03-04T21:37:32.747Z,2.40
2023-03-04T21:40:02.485Z,3.10
2023-03-04T21:42:32.777Z,2.77
2023-03-04T21:45:02.569Z,3.20
2023-03-04T21:47:32.260Z,4.05
2023-03-04T21:50:04.682Z,3.63
2023-03-04T21:52:34.368Z,2.90
2023-03-04T21:55:03.964Z,3.10
2023-03-04T21:57:33.611Z,3.73
2023-03-04T22:00:04.817Z,3.93
2023-03-04T22:02:41.498Z,3.20
2023-03-04T22:05:13.846Z,4.30
2023-03-04T22:07:43.511Z,4.40
2023-03-04T22:10:14.211Z,3.23
2023-03-04T22:12:43.860Z,3.90
2023-03-04T22:15:14.392Z,3.60
2023-03-04T22:17:45.820Z,3.77
2023-03-04T22:20:18.752Z,4.47
2023-03-04T22:22:48.359Z,3.43
2023-03-04T22:25:18.149Z,3.40
2023-03-04T22:27:47.850Z,4.30
2023-03-04T22:30:18.498Z,2.80
2023-03-04T22:32:48.548Z,3.23
2023-03-04T22:35:21.330Z,2.30
2023-03-04T22:37:51.024Z,3.77
2023-03-04T22:40:20.809Z,3.30
2023-03-04T22:42:50.912Z,3.93
2023-03-04T22:45:21.669Z,4.20
2023-03-04T22:47:53.791Z,3.33
2023-03-04T22:50:26.099Z,3.37
2023-03-04T22:52:55.856Z,3.90
2023-03-04T22:55:25.904Z,4.20
2023-03-04T22:57:55.939Z,4.37
2023-03-04T23:00:28.740Z,3.33
2023-03-04T23:02:58.430Z,3.40
2023-03-04T23:05:31.172Z,3.43
2023-03-04T23:08:00.782Z,2.77
2023-03-04T23:10:30.395Z,3.63
2023-03-04T23:13:00.022Z,3.10
2023-03-04T23:15:29.665Z,3.47
2023-03-04T23:17:59.314Z,3.40
2023-03-04T23:20:31.796Z,3.67
2023-03-04T23:23:01.410Z,2.97
2023-03-04T23:25:31.084Z,3.97
2023-03-04T23:28:00.829Z,3.00
2023-03-04T23:30:30.495Z,2.63
2023-03-04T23:33:00.132Z,3.20
2023-03-04T23:35:32.630Z,3.40
2023-03-04T23:38:02.300Z,3.50
2023-03-04T23:40:31.938Z,3.40
2023-03-04T23:43:01.556Z,3.90
2023-03-04T23:45:31.444Z,4.50
2023-03-04T23:48:01.089Z,3.37
2023-03-04T23:50:35.245Z,4.00
2023-03-04T23:53:04.870Z,2.87
2023-03-04T23:55:34.987Z,3.60
2023-03-04T23:58:04.591Z,3.50
